Time;durP1;ratioP1;P1;durP2;ratioP2;P2;SDS_P1;SDS_P2;PMS_P1;PMS_P2;Temp;Humidity;BMP_temperature;BMP_pressure;BME280_temperature;BME280_humidity;BME280_pressure;Samples;Min_cycle;Max_cycle;Signal;HPM_P1;HPM_P2
2023/04/19 00:01:19;;;;;;;9.93;7.20;;;6.80;99.90;;;;;;5053212;28;20236;-63
2023/04/19 00:03:47;;;;;;;7.90;6.80;;;6.90;99.90;;;;;;5055316;28;20766;-62
2023/04/19 00:06:17;;;;;;;11.40;7.00;;;6.90;99.90;;;;;;5055554;28;20228;-63
2023/04/19 00:08:45;;;;;;;7.83;6.37;;;7.00;99.90;;;;;;5054793;28;20223;-63
2023/04/19 00:11:13;;;;;;;9.43;6.80;;;7.00;99.90;;;;;;5055480;28;20231;-63
2023/04/19 00:13:41;;;;;;;9.00;7.00;;;7.10;99.90;;;;;;5055213;28;20631;-63
2023/04/19 00:16:09;;;;;;;9.77;6.83;;;7.10;99.90;;;;;;5057881;28;20228;-63
2023/04/19 00:18:38;;;;;;;8.40;6.50;;;7.10;99.90;;;;;;5058020;28;20235;-63
2023/04/19 00:21:06;;;;;;;10.73;6.63;;;6.90;99.90;;;;;;5055466;28;20216;-63
2023/04/19 00:23:36;;;;;;;8.53;6.40;;;6.90;99.90;;;;;;5055378;28;20242;-63
2023/04/19 00:26:04;;;;;;;7.87;6.50;;;6.90;99.90;;;;;;5055130;28;20227;-63
2023/04/19 00:28:34;;;;;;;8.63;6.07;;;6.80;99.90;;;;;;5054325;28;20231;-63
2023/04/19 00:31:05;;;;;;;9.23;7.00;;;6.80;99.90;;;;;;5044994;28;20246;-63
2023/04/19 00:33:34;;;;;;;10.30;6.50;;;6.80;99.90;;;;;;5054980;28;20220;-63
2023/04/19 00:36:04;;;;;;;10.53;6.43;;;6.70;99.90;;;;;;5045157;28;20251;-63
2023/04/19 00:38:36;;;;;;;9.77;6.13;;;6.70;99.90;;;;;;5054294;28;20322;-63
2023/04/19 00:41:04;;;;;;;10.07;6.47;;;6.70;99.90;;;;;;5053662;28;20228;-63
2023/04/19 00:43:32;;;;;;;12.03;7.13;;;6.60;99.90;;;;;;5054561;28;20234;-63
2023/04/19 00:46:01;;;;;;;9.27;6.50;;;6.50;99.90;;;;;;5054570;28;20218;-63
2023/04/19 00:48:30;;;;;;;9.93;6.57;;;6.40;99.90;;;;;;5058498;28;20683;-63
2023/04/19 00:50:58;;;;;;;9.80;6.93;;;6.50;99.90;;;;;;5054354;28;20223;-63
2023/04/19 00:53:26;;;;;;;8.83;6.80;;;6.40;99.90;;;;;;5054536;28;20698;-63
2023/04/19 00:55:59;;;;;;;9.07;6.30;;;6.40;99.90;;;;;;5036556;28;20236;-63
2023/04/19 00:58:30;;;;;;;9.43;6.33;;;6.30;99.90;;;;;;5052981;28;20228;-63
2023/04/19 01:00:58;;;;;;;10.67;6.70;;;6.40;99.90;;;;;;5054003;28;20290;-63
2023/04/19 01:03:27;;;;;;;11.43;6.60;;;6.40;99.90;;;;;;5053962;28;20247;-63
2023/04/19 01:05:56;;;;;;;9.43;6.87;;;6.40;99.90;;;;;;5054094;28;20225;-63
2023/04/19 01:08:24;;;;;;;9.47;6.77;;;6.40;99.90;;;;;;5053773;28;20755;-63
2023/04/19 01:10:55;;;;;;;9.77;7.00;;;6.30;99.90;;;;;;5054315;28;20212;-63
2023/04/19 01:13:23;;;;;;;9.10;6.47;;;6.30;99.90;;;;;;5053942;28;20224;-63
2023/04/19 01:15:52;;;;;;;7.80;6.37;;;6.30;99.90;;;;;;5054077;28;20738;-63
2023/04/19 01:18:21;;;;;;;9.07;6.50;;;6.30;99.90;;;;;;5049861;28;20219;-63
2023/04/19 01:20:49;;;;;;;8.20;6.77;;;6.30;99.90;;;;;;5050845;28;20238;-63
2023/04/19 01:23:19;;;;;;;11.33;6.87;;;6.30;99.90;;;;;;5036203;28;20263;-63
2023/04/19 01:25:49;;;;;;;10.07;6.43;;;6.30;99.90;;;;;;5054191;28;20224;-63
2023/04/19 01:28:17;;;;;;;10.23;6.60;;;6.30;99.90;;;;;;5053121;28;20223;-63
2023/04/19 01:30:45;;;;;;;10.20;6.93;;;6.30;99.90;;;;;;5053183;28;20239;-63
2023/04/19 01:33:13;;;;;;;9.03;6.60;;;6.30;99.90;;;;;;5049923;28;20270;-63
2023/04/19 01:35:41;;;;;;;12.90;6.33;;;6.20;99.90;;;;;;5053503;28;20231;-63
2023/04/19 01:38:09;;;;;;;12.17;6.60;;;6.20;99.90;;;;;;5053483;28;20259;-63
2023/04/19 01:40:42;;;;;;;10.07;6.60;;;6.10;99.90;;;;;;5033700;28;20216;-63
2023/04/19 01:43:12;;;;;;;8.80;6.07;;;6.10;99.90;;;;;;5033841;28;20228;-63
2023/04/19 01:45:40;;;;;;;9.33;6.70;;;6.00;99.90;;;;;;5035250;28;20217;-63
2023/04/19 01:48:08;;;;;;;8.43;6.60;;;6.00;99.90;;;;;;5059680;28;20220;-63
2023/04/19 01:50:37;;;;;;;11.33;6.53;;;6.00;99.90;;;;;;5043836;28;20213;-63
2023/04/19 01:53:05;;;;;;;10.17;6.20;;;6.00;99.90;;;;;;5015848;28;20259;-63
2023/04/19 01:55:33;;;;;;;8.53;5.73;;;5.90;99.90;;;;;;5016204;28;20235;-63
2023/04/19 01:58:02;;;;;;;8.13;6.30;;;5.90;99.90;;;;;;5053592;28;20223;-63
2023/04/19 02:00:30;;;;;;;8.17;6.23;;;5.90;99.90;;;;;;5042818;28;20227;-63
2023/04/19 02:02:58;;;;;;;8.50;6.40;;;5.90;99.90;;;;;;5053049;28;20220;-63
2023/04/19 02:05:27;;;;;;;7.73;5.63;;;5.90;99.90;;;;;;5043304;28;20277;-63
2023/04/19 02:07:55;;;;;;;8.90;6.23;;;5.90;99.90;;;;;;5053219;28;20224;-63
2023/04/19 02:10:23;;;;;;;9.33;5.97;;;6.10;99.90;;;;;;5053858;28;20239;-63
2023/04/19 02:12:51;;;;;;;8.70;5.77;;;6.00;99.90;;;;;;5051868;28;20311;-63
2023/04/19 02:15:21;;;;;;;8.70;6.10;;;6.20;99.90;;;;;;5053063;28;20702;-63
2023/04/19 02:17:49;;;;;;;9.90;6.33;;;6.20;99.90;;;;;;5057083;28;20236;-63
2023/04/19 02:20:19;;;;;;;6.87;5.60;;;6.30;99.90;;;;;;5051687;28;20753;-63
2023/04/19 02:22:49;;;;;;;7.10;5.43;;;6.40;99.90;;;;;;5051378;28;20230;-63
2023/04/19 02:25:18;;;;;;;8.73;6.47;;;6.40;99.90;;;;;;5034734;28;20636;-63
2023/04/19 02:27:46;;;;;;;9.50;6.00;;;6.40;99.90;;;;;;5051867;28;20278;-63
2023/04/19 02:30:14;;;;;;;8.30;6.00;;;6.30;99.90;;;;;;5042672;28;20725;-63
2023/04/19 02:32:44;;;;;;;9.93;6.43;;;6.30;99.90;;;;;;5052597;28;20223;-63
2023/04/19 02:35:12;;;;;;;8.17;5.73;;;6.30;99.90;;;;;;5052944;28;20238;-63
2023/04/19 02:37:41;;;;;;;8.57;5.77;;;6.30;99.90;;;;;;5051873;28;20701;-63
2023/04/19 02:40:10;;;;;;;7.80;5.53;;;6.30;99.90;;;;;;5055328;28;20293;-63
2023/04/19 02:42:39;;;;;;;9.83;5.87;;;6.30;99.90;;;;;;5052416;28;20286;-63
2023/04/19 02:45:08;;;;;;;8.63;6.23;;;6.40;99.90;;;;;;5052684;28;20220;-63
2023/04/19 02:47:36;;;;;;;7.83;5.97;;;6.30;99.90;;;;;;5057868;28;20215;-63
2023/04/19 02:50:07;;;;;;;8.97;5.80;;;6.20;99.90;;;;;;5043357;28;20268;-63
2023/04/19 02:52:41;;;;;;;9.53;6.23;;;6.40;99.90;;;;;;5051249;28;20729;-63
2023/04/19 02:55:10;;;;;;;8.10;6.30;;;6.20;99.90;;;;;;5052644;28;20227;-63
2023/04/19 02:57:38;;;;;;;7.27;5.30;;;6.30;99.90;;;;;;5033277;28;20274;-63
2023/04/19 03:00:09;;;;;;;7.23;5.53;;;6.30;99.90;;;;;;5044963;28;20212;-63
2023/04/19 03:02:42;;;;;;;6.63;5.93;;;6.30;99.90;;;;;;5046931;28;20247;-63
2023/04/19 03:05:12;;;;;;;7.40;6.30;;;6.10;99.90;;;;;;5052197;28;20243;-63
2023/04/19 03:07:40;;;;;;;8.53;6.53;;;6.00;99.90;;;;;;5051932;28;20642;-63
2023/04/19 03:10:11;;;;;;;8.33;5.30;;;5.80;99.90;;;;;;5054822;28;20223;-63
2023/04/19 03:12:39;;;;;;;8.47;5.87;;;5.80;99.90;;;;;;5034403;28;20236;-63
2023/04/19 03:15:10;;;;;;;8.67;6.27;;;5.90;99.90;;;;;;5034540;28;20602;-63
2023/04/19 03:17:38;;;;;;;7.53;6.17;;;5.90;99.90;;;;;;5058124;28;20277;-63
2023/04/19 03:20:10;;;;;;;9.20;5.77;;;5.70;99.90;;;;;;5058721;28;20262;-63
2023/04/19 03:22:40;;;;;;;7.27;5.60;;;5.60;99.90;;;;;;5050906;28;20228;-63
2023/04/19 03:25:11;;;;;;;6.90;5.27;;;5.60;99.90;;;;;;5034441;28;20706;-63
2023/04/19 03:27:40;;;;;;;7.57;5.00;;;5.60;99.90;;;;;;5033396;28;20262;-63
2023/04/19 03:30:13;;;;;;;7.60;5.57;;;5.50;99.90;;;;;;5041975;28;20255;-63
2023/04/19 03:32:43;;;;;;;6.07;5.17;;;5.40;99.90;;;;;;5050428;28;20235;-63
2023/04/19 03:35:13;;;;;;;6.30;4.80;;;5.50;99.90;;;;;;5035352;28;20227;-63
2023/04/19 03:37:42;;;;;;;7.93;5.20;;;5.40;99.90;;;;;;5055062;28;20702;-63
2023/04/19 03:40:11;;;;;;;6.30;4.80;;;5.40;99.90;;;;;;5038122;28;20595;-63
2023/04/19 03:42:39;;;;;;;6.57;4.53;;;5.30;99.90;;;;;;5054425;28;20587;-63
2023/04/19 03:45:13;;;;;;;5.83;4.43;;;5.30;99.90;;;;;;5027898;28;20225;-63
2023/04/19 03:47:46;;;;;;;8.37;4.60;;;5.30;99.90;;;;;;5035121;28;20702;-63
2023/04/19 03:50:14;;;;;;;7.47;4.60;;;5.30;99.90;;;;;;5037881;28;20238;-63
2023/04/19 03:52:48;;;;;;;5.43;3.93;;;5.20;99.90;;;;;;5037839;28;20748;-63
2023/04/19 03:55:17;;;;;;;7.53;4.07;;;5.30;99.90;;;;;;5037904;28;20238;-63
2023/04/19 03:57:45;;;;;;;7.50;4.40;;;5.20;99.90;;;;;;5054627;28;20486;-63
2023/04/19 04:00:21;;;;;;;5.20;3.67;;;5.20;99.90;;;;;;5045480;28;20501;-63
2023/04/19 04:02:56;;;;;;;5.90;3.87;;;5.30;99.90;;;;;;5036877;28;20226;-63
2023/04/19 04:05:26;;;;;;;6.83;4.37;;;5.30;99.90;;;;;;5045767;28;20973;-63
2023/04/19 04:07:56;;;;;;;6.27;4.03;;;5.30;99.90;;;;;;5037081;28;20778;-63
2023/04/19 04:10:25;;;;;;;5.23;3.80;;;5.30;99.90;;;;;;5037338;28;20255;-63
2023/04/19 04:12:53;;;;;;;6.40;4.10;;;5.30;99.90;;;;;;5054113;28;20531;-63
2023/04/19 04:15:28;;;;;;;4.90;3.60;;;5.30;99.90;;;;;;5053964;28;20321;-63
2023/04/19 04:17:57;;;;;;;6.00;4.33;;;5.20;99.90;;;;;;5059485;28;20694;-63
2023/04/19 04:20:26;;;;;;;6.30;3.90;;;5.20;99.90;;;;;;5053741;28;20772;-63
2023/04/19 04:23:02;;;;;;;6.13;3.90;;;5.20;99.90;;;;;;5037405;28;20767;-63
2023/04/19 04:25:31;;;;;;;7.13;3.97;;;5.20;99.90;;;;;;5055166;28;20585;-63
2023/04/19 04:28:02;;;;;;;7.57;4.20;;;5.30;99.90;;;;;;5036353;28;20266;-63
2023/04/19 04:30:30;;;;;;;5.90;4.00;;;5.40;99.90;;;;;;5053340;28;20219;-63
2023/04/19 04:32:59;;;;;;;6.10;3.60;;;5.30;99.90;;;;;;5037123;28;20228;-63
2023/04/19 04:35:29;;;;;;;5.13;3.90;;;5.30;99.90;;;;;;5061580;28;20223;-63
2023/04/19 04:38:08;;;;;;;6.77;4.20;;;5.20;99.90;;;;;;5035440;28;20243;-63
2023/04/19 04:40:52;;;;;;;5.53;3.80;;;5.30;99.90;;;;;;5025430;28;20226;-63
2023/04/19 04:43:21;;;;;;;5.63;3.50;;;5.30;99.90;;;;;;5036554;28;20821;-63
2023/04/19 04:45:50;;;;;;;7.57;3.57;;;5.30;99.90;;;;;;5036651;28;20266;-63
2023/04/19 04:48:18;;;;;;;5.33;3.40;;;5.40;99.90;;;;;;5035658;28;20215;-63
2023/04/19 04:50:47;;;;;;;6.03;3.70;;;5.40;99.90;;;;;;5036522;28;20248;-63
2023/04/19 04:53:16;;;;;;;6.83;3.37;;;5.40;99.90;;;;;;5054071;28;20212;-63
2023/04/19 04:55:45;;;;;;;8.17;3.73;;;5.50;99.90;;;;;;5036609;28;20242;-63
2023/04/19 04:58:14;;;;;;;5.37;3.60;;;5.50;99.90;;;;;;5054205;28;20315;-63
2023/04/19 05:00:54;;;;;;;5.87;3.73;;;5.60;99.90;;;;;;5036175;28;20706;-63
2023/04/19 05:03:24;;;;;;;5.87;3.40;;;5.70;99.90;;;;;;5036332;28;20734;-63
2023/04/19 05:05:56;;;;;;;3.70;3.10;;;5.80;99.90;;;;;;5041698;28;20224;-63
2023/04/19 05:08:26;;;;;;;7.30;3.57;;;5.70;99.90;;;;;;5052818;28;20258;-63
2023/04/19 05:11:00;;;;;;;6.50;3.47;;;5.80;99.90;;;;;;5052621;28;20711;-63
2023/04/19 05:13:31;;;;;;;6.50;3.47;;;5.90;99.90;;;;;;5024230;28;20232;-63
2023/04/19 05:16:00;;;;;;;5.47;3.30;;;5.90;99.90;;;;;;5023853;28;20801;-63
2023/04/19 05:18:29;;;;;;;6.90;3.10;;;5.90;99.90;;;;;;5040791;28;20859;-63
2023/04/19 05:20:57;;;;;;;7.00;3.37;;;5.90;99.90;;;;;;5034745;28;20232;-63
2023/04/19 05:23:30;;;;;;;5.03;3.27;;;5.90;99.90;;;;;;5018539;28;20783;-63
2023/04/19 05:25:59;;;;;;;4.03;2.97;;;6.00;99.90;;;;;;5037763;28;20235;-63
2023/04/19 05:28:28;;;;;;;3.97;3.03;;;6.10;99.90;;;;;;5017923;28;20315;-63
2023/04/19 05:31:03;;;;;;;4.07;2.67;;;6.10;99.90;;;;;;5018821;28;20587;-63
2023/04/19 05:33:35;;;;;;;4.53;2.93;;;6.20;99.90;;;;;;5017742;28;20230;-63
2023/04/19 05:36:05;;;;;;;4.37;3.03;;;6.30;99.90;;;;;;5017431;28;20282;-62
2023/04/19 05:38:35;;;;;;;5.10;2.77;;;6.50;99.90;;;;;;5018404;28;20715;-63
2023/04/19 05:41:04;;;;;;;4.27;2.93;;;6.70;99.90;;;;;;5017552;28;20279;-62
2023/04/19 05:43:32;;;;;;;3.77;2.90;;;6.80;99.90;;;;;;5036389;28;20224;-62
2023/04/19 05:46:00;;;;;;;5.73;3.00;;;7.00;99.90;;;;;;5013702;28;20358;-63
2023/04/19 05:48:29;;;;;;;5.10;2.97;;;7.20;99.90;;;;;;5016125;28;20250;-62
2023/04/19 05:51:30;;;;;;;5.43;2.93;;;7.40;99.90;;;;;;5011195;28;20311;-62
2023/04/19 05:54:12;;;;;;;6.50;2.97;;;7.60;99.90;;;;;;5018517;28;20231;-62
2023/04/19 05:56:43;;;;;;;4.80;2.73;;;7.70;99.90;;;;;;5019927;28;20657;-62
2023/04/19 05:59:12;;;;;;;5.43;2.73;;;7.90;99.90;;;;;;5043045;28;20242;-63
2023/04/19 06:01:40;;;;;;;4.60;2.97;;;8.10;99.90;;;;;;5020750;28;20224;-62
2023/04/19 06:04:09;;;;;;;3.47;2.20;;;8.20;99.90;;;;;;5039424;28;20243;-62
2023/04/19 06:06:39;;;;;;;3.07;2.40;;;8.40;99.90;;;;;;5043698;28;20315;-61
2023/04/19 06:09:07;;;;;;;4.00;2.60;;;8.60;99.90;;;;;;5039689;28;20216;-62
2023/04/19 06:11:36;;;;;;;2.23;2.00;;;8.70;99.90;;;;;;5038212;28;20229;-62
2023/04/19 06:14:17;;;;;;;2.80;2.30;;;8.70;99.90;;;;;;5035476;28;20334;-62
2023/04/19 06:16:46;;;;;;;4.60;2.87;;;8.90;99.90;;;;;;5015999;28;20235;-62
2023/04/19 06:19:14;;;;;;;2.87;2.10;;;9.00;99.90;;;;;;5036072;28;20232;-62
2023/04/19 06:21:42;;;;;;;2.63;2.10;;;9.10;99.90;;;;;;5035481;28;20239;-62
2023/04/19 06:24:10;;;;;;;3.90;2.00;;;9.10;99.90;;;;;;5036122;28;20602;-62
2023/04/19 06:26:40;;;;;;;4.63;2.30;;;9.20;99.90;;;;;;5034692;28;20232;-61
2023/04/19 06:29:08;;;;;;;5.13;2.43;;;9.40;99.90;;;;;;5036384;28;20225;-61
2023/04/19 06:31:36;;;;;;;3.70;2.07;;;9.60;99.90;;;;;;5035313;28;20236;-61
2023/04/19 06:34:04;;;;;;;3.77;2.63;;;9.80;99.90;;;;;;5035230;28;20600;-61
2023/04/19 06:36:33;;;;;;;3.37;1.90;;;9.90;99.90;;;;;;5035947;28;20225;-60
2023/04/19 06:39:01;;;;;;;3.43;2.27;;;9.80;99.90;;;;;;5036908;28;20240;-61
2023/04/19 06:41:29;;;;;;;3.80;2.00;;;9.70;99.90;;;;;;5035238;28;20221;-61
2023/04/19 06:43:59;;;;;;;3.97;2.13;;;9.80;99.90;;;;;;5035647;28;20704;-61
2023/04/19 06:46:27;;;;;;;3.17;1.77;;;10.00;99.90;;;;;;5037167;28;20236;-61
2023/04/19 06:48:55;;;;;;;2.73;2.00;;;10.20;99.90;;;;;;5035598;28;20682;-61
2023/04/19 06:51:24;;;;;;;2.10;1.90;;;10.20;99.90;;;;;;5034625;28;20897;-61
2023/04/19 06:53:52;;;;;;;2.83;1.97;;;10.20;99.90;;;;;;5035205;28;20711;-61
2023/04/19 06:56:39;;;;;;;3.17;1.70;;;10.30;99.90;;;;;;5032914;28;20640;-61
2023/04/19 06:59:09;;;;;;;1.73;1.63;;;10.60;99.90;;;;;;5035417;28;21068;-60
2023/04/19 07:01:37;;;;;;;3.90;1.70;;;11.00;99.90;;;;;;5034550;28;20241;-62
2023/04/19 07:04:06;;;;;;;2.03;1.70;;;11.20;99.90;;;;;;5035396;28;21053;-61
2023/04/19 07:06:35;;;;;;;2.57;1.60;;;11.10;99.90;;;;;;5034354;28;20230;-61
2023/04/19 07:09:04;;;;;;;3.13;1.93;;;11.10;99.90;;;;;;5035971;28;21621;-61
2023/04/19 07:11:32;;;;;;;3.47;1.60;;;11.20;99.90;;;;;;5041602;28;20245;-60
2023/04/19 07:14:00;;;;;;;4.07;1.90;;;11.30;99.90;;;;;;5042570;28;20229;-60
2023/04/19 07:16:30;;;;;;;4.20;1.77;;;11.40;99.90;;;;;;5040348;28;20234;-61
2023/04/19 07:18:58;;;;;;;4.13;2.10;;;11.20;99.90;;;;;;5042254;28;20238;-61
2023/04/19 07:21:31;;;;;;;2.40;1.77;;;11.10;99.90;;;;;;5042121;28;20235;-61
2023/04/19 07:23:59;;;;;;;3.00;1.80;;;11.50;99.90;;;;;;5042515;28;20638;-60
2023/04/19 07:26:27;;;;;;;3.70;2.20;;;11.50;99.90;;;;;;5040518;28;20600;-61
2023/04/19 07:28:56;;;;;;;4.03;1.97;;;11.60;99.90;;;;;;5041898;28;20224;-61
2023/04/19 07:31:24;;;;;;;2.53;2.07;;;11.50;99.90;;;;;;5042447;28;20671;-61
2023/04/19 07:33:54;;;;;;;4.10;1.97;;;11.50;99.90;;;;;;5038954;28;20234;-61
2023/04/19 07:36:22;;;;;;;3.40;2.17;;;11.70;99.90;;;;;;5037959;28;20956;-61
2023/04/19 07:38:51;;;;;;;3.77;1.87;;;11.90;99.90;;;;;;5038893;28;20269;-61
2023/04/19 07:41:19;;;;;;;3.10;2.00;;;12.40;99.90;;;;;;5038823;28;20709;-60
2023/04/19 07:43:47;;;;;;;3.60;2.20;;;13.00;99.90;;;;;;5040854;28;20231;-61
2023/04/19 07:46:15;;;;;;;5.20;2.20;;;12.80;99.90;;;;;;5041476;28;20245;-61
2023/04/19 07:48:47;;;;;;;2.97;1.57;;;12.70;99.90;;;;;;5041504;28;20701;-61
2023/04/19 07:51:18;;;;;;;1.97;1.70;;;13.00;99.90;;;;;;5041390;28;20321;-61
2023/04/19 07:53:47;;;;;;;3.23;1.77;;;13.20;99.90;;;;;;5041813;28;20235;-60
2023/04/19 07:56:15;;;;;;;2.33;1.80;;;13.50;99.90;;;;;;5041306;28;20273;-60
2023/04/19 07:58:43;;;;;;;3.13;1.80;;;13.40;99.90;;;;;;5041240;28;20250;-61
2023/04/19 08:01:18;;;;;;;2.40;1.70;;;13.20;99.90;;;;;;5041174;28;20720;-61
2023/04/19 08:03:46;;;;;;;2.90;1.73;;;13.00;99.90;;;;;;5041584;28;20759;-61
2023/04/19 08:06:17;;;;;;;3.67;1.90;;;12.90;99.90;;;;;;5040299;28;20739;-61
2023/04/19 08:08:45;;;;;;;2.37;1.70;;;12.90;99.90;;;;;;5041202;28;20818;-60
2023/04/19 08:11:13;;;;;;;2.03;1.70;;;13.30;99.90;;;;;;5040854;28;20231;-59
2023/04/19 08:13:42;;;;;;;2.33;1.70;;;13.20;99.90;;;;;;5041544;28;20232;-61
2023/04/19 08:16:28;;;;;;;1.70;1.10;;;13.30;99.90;;;;;;5037863;28;20709;-61
2023/04/19 08:19:16;;;;;;;2.50;1.33;;;13.40;99.90;;;;;;5037412;28;20277;-60
2023/04/19 08:21:46;;;;;;;1.87;1.60;;;13.30;99.90;;;;;;5036938;28;20236;-61
2023/04/19 08:24:14;;;;;;;2.47;1.17;;;13.30;99.90;;;;;;5038790;28;20737;-61
2023/04/19 08:26:42;;;;;;;1.23;1.10;;;13.10;99.90;;;;;;5038473;28;20237;-60
2023/04/19 08:29:10;;;;;;;2.70;1.30;;;13.10;99.90;;;;;;5041282;28;20226;-61
2023/04/19 08:31:39;;;;;;;1.53;1.20;;;13.20;99.90;;;;;;5041351;28;20234;-61
2023/04/19 08:34:07;;;;;;;1.50;1.00;;;13.30;99.90;;;;;;5041618;28;20615;-60
2023/04/19 08:36:35;;;;;;;1.30;1.07;;;13.30;99.90;;;;;;5039700;28;20237;-60
2023/04/19 08:39:17;;;;;;;1.77;1.00;;;13.30;99.90;;;;;;5039151;28;20234;-60
2023/04/19 08:42:04;;;;;;;3.63;1.17;;;13.80;99.90;;;;;;5039191;28;20811;-60
2023/04/19 08:44:40;;;;;;;1.20;1.10;;;13.80;99.90;;;;;;5038320;28;20243;-60
2023/04/19 08:47:27;;;;;;;2.50;1.03;;;13.60;99.90;;;;;;5035913;28;20706;-61
2023/04/19 08:50:01;;;;;;;1.60;1.20;;;13.90;99.90;;;;;;5038165;28;20238;-61
2023/04/19 08:52:34;;;;;;;1.03;1.00;;;13.90;99.90;;;;;;5038019;28;22258;-60
2023/04/19 08:55:20;;;;;;;1.60;1.03;;;14.30;99.90;;;;;;5037865;28;20236;-59
2023/04/19 08:57:48;;;;;;;1.83;1.10;;;14.60;99.90;;;;;;5035234;28;20238;-60
2023/04/19 09:00:18;;;;;;;1.30;1.00;;;14.70;99.90;;;;;;5040200;28;20236;-60
2023/04/19 09:02:47;;;;;;;1.17;1.07;;;14.50;99.90;;;;;;5037685;28;20774;-61
2023/04/19 09:05:17;;;;;;;2.10;1.00;;;14.60;99.90;;;;;;5038129;28;20259;-61
2023/04/19 09:07:46;;;;;;;3.00;1.20;;;14.70;99.90;;;;;;5035210;28;20350;-60
2023/04/19 09:10:16;;;;;;;1.87;0.90;;;14.80;99.90;;;;;;5037474;28;20227;-60
2023/04/19 09:13:00;;;;;;;1.20;1.00;;;14.60;99.90;;;;;;5039775;28;21643;-61
2023/04/19 09:15:37;;;;;;;2.00;1.20;;;14.60;99.90;;;;;;5040634;28;21223;-61
2023/04/19 09:18:08;;;;;;;2.30;1.17;;;14.60;99.90;;;;;;5039337;28;20699;-61
2023/04/19 09:20:37;;;;;;;2.17;1.20;;;14.70;99.90;;;;;;5040244;28;20327;-60
2023/04/19 09:23:07;;;;;;;2.40;1.20;;;15.10;99.90;;;;;;5039880;28;20281;-60
2023/04/19 09:25:35;;;;;;;1.20;1.10;;;15.40;99.90;;;;;;5040273;28;20228;-60
2023/04/19 09:28:25;;;;;;;3.77;1.33;;;15.10;99.90;;;;;;5039469;28;20261;-60
2023/04/19 09:30:54;;;;;;;3.27;1.10;;;14.90;99.90;;;;;;5039819;28;20313;-60
2023/04/19 09:33:44;;;;;;;1.20;1.10;;;15.00;99.90;;;;;;5040294;28;20694;-60
2023/04/19 09:36:25;;;;;;;3.30;1.20;;;15.00;99.90;;;;;;5038601;28;20231;-60
2023/04/19 09:38:54;;;;;;;1.47;1.03;;;15.00;99.90;;;;;;5020953;28;20905;-60
2023/04/19 09:41:22;;;;;;;2.07;1.17;;;15.20;99.90;;;;;;5040361;28;20243;-61
2023/04/19 09:43:51;;;;;;;1.70;1.00;;;14.90;99.90;;;;;;5039874;28;20232;-61
2023/04/19 09:46:41;;;;;;;2.30;1.20;;;14.80;99.90;;;;;;5039228;28;20270;-60
2023/04/19 09:49:22;;;;;;;2.57;1.13;;;15.00;99.90;;;;;;5039647;28;20219;-59
2023/04/19 09:52:13;;;;;;;2.07;1.10;;;14.90;99.90;;;;;;5039979;28;20231;-60
2023/04/19 09:54:42;;;;;;;2.30;1.27;;;15.10;99.90;;;;;;5039985;28;20730;-59
2023/04/19 09:57:10;;;;;;;2.63;1.10;;;15.20;99.20;;;;;;5038315;28;20232;-60
2023/04/19 09:59:39;;;;;;;1.90;1.33;;;14.90;94.80;;;;;;5039225;28;20228;-60
2023/04/19 10:02:11;;;;;;;2.20;1.60;;;14.70;95.40;;;;;;5038922;28;20227;-60
2023/04/19 10:04:41;;;;;;;1.70;1.30;;;14.80;93.10;;;;;;5039037;28;20251;-60
2023/04/19 10:07:31;;;;;;;2.70;1.50;;;14.90;92.90;;;;;;5038682;28;20223;-60
2023/04/19 10:10:01;;;;;;;2.20;1.30;;;14.70;92.60;;;;;;5039249;28;20306;-61
2023/04/19 10:12:49;;;;;;;1.67;1.30;;;14.70;91.50;;;;;;5038985;28;20228;-60
2023/04/19 10:15:23;;;;;;;2.90;1.50;;;14.80;92.10;;;;;;5039051;28;20223;-60
2023/04/19 10:17:51;;;;;;;3.50;1.57;;;15.00;92.00;;;;;;5037096;28;20235;-60
2023/04/19 10:20:23;;;;;;;3.90;1.50;;;15.20;92.70;;;;;;5038358;28;20236;-60
2023/04/19 10:22:52;;;;;;;1.83;1.40;;;15.10;91.90;;;;;;5038738;28;20236;-59
2023/04/19 10:25:28;;;;;;;3.20;1.30;;;14.80;91.70;;;;;;5038649;28;20227;-59
2023/04/19 10:27:57;;;;;;;1.80;1.27;;;15.10;92.30;;;;;;5037683;28;20702;-59
2023/04/19 10:30:27;;;;;;;2.27;1.43;;;15.30;91.70;;;;;;5038478;28;21081;-61
2023/04/19 10:32:56;;;;;;;2.77;1.50;;;15.10;91.60;;;;;;5036972;28;20220;-60
2023/04/19 10:35:28;;;;;;;2.90;1.60;;;14.90;90.90;;;;;;5035271;28;20228;-59
2023/04/19 10:38:07;;;;;;;4.37;1.70;;;15.00;90.40;;;;;;5034187;28;20251;-60
2023/04/19 10:41:00;;;;;;;1.83;1.20;;;15.40;90.60;;;;;;5035085;28;20236;-61
2023/04/19 10:43:29;;;;;;;5.00;1.73;;;15.80;90.10;;;;;;5035356;28;21180;-61
2023/04/19 10:46:02;;;;;;;3.60;1.50;;;16.00;89.50;;;;;;5034231;28;20236;-61
2023/04/19 10:48:36;;;;;;;2.23;1.50;;;15.90;87.10;;;;;;5035112;28;20683;-61
2023/04/19 10:51:13;;;;;;;3.07;1.43;;;16.20;90.10;;;;;;5034305;28;20248;-60
2023/04/19 10:53:56;;;;;;;2.53;1.83;;;16.50;88.80;;;;;;5035006;28;20223;-60
2023/04/19 10:57:01;;;;;;;3.47;1.87;;;16.40;83.60;;;;;;5032957;28;20242;-61
2023/04/19 10:59:30;;;;;;;3.20;1.60;;;16.20;85.10;;;;;;5034490;28;20239;-61
2023/04/19 11:02:01;;;;;;;4.13;1.87;;;15.80;82.20;;;;;;5034543;28;20236;-60
2023/04/19 11:05:13;;;;;;;2.37;1.70;;;16.10;88.00;;;;;;5034670;28;20702;-61
2023/04/19 11:07:42;;;;;;;4.73;1.70;;;16.20;84.80;;;;;;5033667;28;20915;-60
2023/04/19 11:10:11;;;;;;;3.13;1.67;;;15.70;82.10;;;;;;5034760;28;20228;-60
2023/04/19 11:12:43;;;;;;;2.50;1.50;;;15.60;83.30;;;;;;5035017;28;20234;-59
2023/04/19 11:15:11;;;;;;;2.23;2.00;;;15.80;85.40;;;;;;5034644;28;20243;-60
2023/04/19 11:17:41;;;;;;;2.73;1.97;;;15.80;85.40;;;;;;5033141;28;20236;-59
2023/04/19 11:20:12;;;;;;;1.67;1.57;;;15.90;85.40;;;;;;5034815;28;20255;-60
2023/04/19 11:22:42;;;;;;;2.10;1.60;;;15.80;83.50;;;;;;5034335;28;21306;-60
2023/04/19 11:25:12;;;;;;;2.00;1.50;;;15.90;87.00;;;;;;5034996;28;20232;-60
2023/04/19 11:27:42;;;;;;;2.30;1.83;;;16.30;84.40;;;;;;5032746;28;20717;-60
2023/04/19 11:30:12;;;;;;;2.13;1.80;;;16.10;84.60;;;;;;5034068;28;20244;-61
2023/04/19 11:32:47;;;;;;;2.97;2.00;;;16.30;85.40;;;;;;5036346;28;20235;-61
2023/04/19 11:35:18;;;;;;;2.40;2.00;;;15.70;84.20;;;;;;5035384;28;20228;-60
2023/04/19 11:37:46;;;;;;;3.50;2.07;;;15.60;85.40;;;;;;5031645;28;20259;-60
2023/04/19 11:40:15;;;;;;;2.23;2.00;;;15.70;88.70;;;;;;5034235;28;20272;-60
2023/04/19 11:42:44;;;;;;;2.60;1.90;;;16.10;89.50;;;;;;5033249;28;20298;-61
2023/04/19 11:45:23;;;;;;;3.13;1.70;;;16.10;86.10;;;;;;5035039;28;20585;-60
2023/04/19 11:48:00;;;;;;;3.70;1.80;;;16.20;89.00;;;;;;5033514;28;20236;-60
2023/04/19 11:50:36;;;;;;;2.97;2.00;;;16.70;87.50;;;;;;5035553;28;20702;-60
2023/04/19 11:53:12;;;;;;;3.47;2.03;;;16.40;84.70;;;;;;5035880;28;20592;-61
2023/04/19 11:55:46;;;;;;;3.67;2.23;;;15.80;87.50;;;;;;5035441;28;20743;-60
2023/04/19 11:58:28;;;;;;;4.97;2.47;;;15.40;90.00;;;;;;5036637;28;20224;-60
2023/04/19 12:00:59;;;;;;;2.83;2.03;;;15.00;87.60;;;;;;5037329;28;20236;-60
2023/04/19 12:03:29;;;;;;;2.33;2.10;;;15.00;89.10;;;;;;5037982;28;20252;-61
2023/04/19 12:05:59;;;;;;;5.27;2.50;;;14.90;85.70;;;;;;5038343;28;20232;-59
2023/04/19 12:08:32;;;;;;;4.27;2.13;;;14.70;85.00;;;;;;5037737;28;20760;-59
2023/04/19 12:11:02;;;;;;;4.10;2.23;;;14.80;81.60;;;;;;5037524;28;20221;-60
2023/04/19 12:13:31;;;;;;;4.93;2.20;;;14.80;82.00;;;;;;5037230;28;20220;-60
2023/04/19 12:16:00;;;;;;;3.23;1.87;;;14.80;79.90;;;;;;5036905;28;20231;-60
2023/04/19 12:18:43;;;;;;;3.53;2.30;;;14.60;79.50;;;;;;5037033;28;20713;-59
2023/04/19 12:21:23;;;;;;;2.13;1.90;;;14.50;81.30;;;;;;5038381;28;20817;-61
2023/04/19 12:23:54;;;;;;;2.40;1.80;;;14.70;81.30;;;;;;5036908;28;20224;-60
2023/04/19 12:26:22;;;;;;;2.93;1.93;;;14.70;80.60;;;;;;5035618;28;20764;-60
2023/04/19 12:28:50;;;;;;;3.20;2.30;;;14.60;80.50;;;;;;5037648;28;20227;-59
2023/04/19 12:31:19;;;;;;;3.10;2.33;;;14.70;82.00;;;;;;5036621;28;20969;-60
2023/04/19 12:33:49;;;;;;;2.37;2.00;;;14.60;80.60;;;;;;5036757;28;20232;-60
2023/04/19 12:36:18;;;;;;;2.97;2.27;;;14.50;79.40;;;;;;5035760;28;20231;-60
2023/04/19 12:38:46;;;;;;;2.37;1.83;;;14.40;80.00;;;;;;5037211;28;20800;-60
2023/04/19 12:41:14;;;;;;;4.07;2.40;;;14.10;80.00;;;;;;5038361;28;20227;-60
2023/04/19 12:43:42;;;;;;;3.40;1.63;;;14.20;81.50;;;;;;5037887;28;21289;-60
2023/04/19 12:46:10;;;;;;;3.60;2.13;;;14.50;80.60;;;;;;5036801;28;20743;-59
2023/04/19 12:48:38;;;;;;;4.33;2.00;;;14.50;80.40;;;;;;5038501;28;20679;-60
2023/04/19 12:51:08;;;;;;;3.83;2.03;;;14.40;81.80;;;;;;5037994;28;20239;-60
2023/04/19 12:53:36;;;;;;;2.63;1.80;;;14.30;78.60;;;;;;5037641;28;20242;-60
2023/04/19 12:56:05;;;;;;;3.87;2.00;;;14.00;78.90;;;;;;5037206;28;20236;-61
2023/04/19 12:58:33;;;;;;;3.50;1.80;;;14.30;79.50;;;;;;5037926;28;21022;-60
2023/04/19 13:01:01;;;;;;;3.50;2.17;;;14.30;80.30;;;;;;5039765;28;20240;-60
2023/04/19 13:03:35;;;;;;;3.73;2.00;;;14.30;77.80;;;;;;5040135;28;20748;-60
2023/04/19 13:06:03;;;;;;;5.20;2.00;;;13.90;78.70;;;;;;5040053;28;20323;-60
2023/04/19 13:08:33;;;;;;;2.40;2.00;;;13.90;80.90;;;;;;5040164;28;20230;-59
2023/04/19 13:11:13;;;;;;;2.80;1.90;;;14.00;82.20;;;;;;5040408;28;20323;-60